Time;durP1;ratioP1;P1;durP2;ratioP2;P2;SDS_P1;SDS_P2;PMS_P1;PMS_P2;Temp;Humidity;BMP_temperature;BMP_pressure;BME280_temperature;BME280_humidity;BME280_pressure;Samples;Min_cycle;Max_cycle;Signal;HPM_P1;HPM_P2
2023/08/07 00:00:17;;;;;;;8.05;1.90;;;16.70;99.90;;;;;;4068794;29;20052;-53
2023/08/07 00:02:21;;;;;;;7.88;1.95;;;16.70;99.90;;;;;;4068998;29;20084;-53
2023/08/07 00:04:23;;;;;;;7.90;2.05;;;16.70;99.90;;;;;;4068759;29;20054;-53
2023/08/07 00:06:25;;;;;;;7.20;1.73;;;16.70;99.90;;;;;;4068303;29;20127;-53
2023/08/07 00:08:27;;;;;;;6.50;2.38;;;16.70;99.90;;;;;;4068459;29;20139;-53
2023/08/07 00:10:29;;;;;;;10.63;2.35;;;16.60;99.90;;;;;;4068684;29;20083;-53
2023/08/07 00:12:32;;;;;;;6.80;1.88;;;16.70;99.90;;;;;;4068723;29;20147;-53
2023/08/07 00:14:33;;;;;;;8.15;1.80;;;16.60;99.90;;;;;;4068760;29;20051;-54
2023/08/07 00:16:35;;;;;;;6.00;1.80;;;16.60;99.90;;;;;;4068343;29;20078;-53
2023/08/07 00:18:39;;;;;;;8.40;2.17;;;16.50;99.90;;;;;;4068668;29;20059;-53
2023/08/07 00:20:41;;;;;;;5.80;2.00;;;16.50;99.90;;;;;;4068648;29;20083;-53
2023/08/07 00:22:43;;;;;;;9.77;2.30;;;16.50;99.90;;;;;;4068459;29;20084;-53
2023/08/07 00:24:45;;;;;;;5.43;2.22;;;16.50;99.90;;;;;;4068125;29;20056;-54
2023/08/07 00:26:47;;;;;;;7.50;2.10;;;16.50;99.90;;;;;;4068380;29;20135;-54
2023/08/07 00:28:49;;;;;;;8.13;2.40;;;16.40;99.90;;;;;;4067317;29;20051;-54
2023/08/07 00:30:51;;;;;;;9.63;2.08;;;16.40;99.90;;;;;;4068663;29;20131;-53
2023/08/07 00:32:54;;;;;;;8.23;1.90;;;16.30;99.90;;;;;;4068570;29;20058;-54
2023/08/07 00:34:57;;;;;;;6.25;1.92;;;16.40;99.90;;;;;;4067720;29;20064;-55
2023/08/07 00:36:59;;;;;;;8.70;2.33;;;16.40;99.90;;;;;;4067842;29;20463;-53
2023/08/07 00:39:03;;;;;;;7.38;1.90;;;16.30;99.90;;;;;;4068524;29;20052;-53
2023/08/07 00:41:07;;;;;;;8.25;2.08;;;16.30;99.90;;;;;;4068262;29;20480;-54
2023/08/07 00:43:09;;;;;;;8.93;2.17;;;16.30;99.90;;;;;;4068258;29;20458;-52
2023/08/07 00:45:11;;;;;;;10.18;2.58;;;16.30;99.90;;;;;;4067872;29;20421;-54
2023/08/07 00:47:13;;;;;;;6.07;2.47;;;16.30;99.90;;;;;;4068194;29;20104;-53
2023/08/07 00:49:17;;;;;;;9.43;2.28;;;16.30;99.90;;;;;;4068204;29;20138;-54
2023/08/07 00:51:22;;;;;;;5.88;1.77;;;16.30;99.90;;;;;;4068333;29;20406;-54
2023/08/07 00:53:25;;;;;;;4.47;1.92;;;16.20;99.90;;;;;;4068278;29;20048;-53
2023/08/07 00:55:28;;;;;;;7.10;1.98;;;16.20;99.90;;;;;;4066217;29;20072;-54
2023/08/07 00:57:30;;;;;;;4.72;1.92;;;16.20;99.90;;;;;;4068031;29;20079;-53
2023/08/07 00:59:33;;;;;;;13.50;2.58;;;16.10;99.90;;;;;;4068561;29;20048;-53
2023/08/07 01:01:36;;;;;;;7.32;2.05;;;16.10;99.90;;;;;;4068132;29;20067;-54
2023/08/07 01:03:38;;;;;;;6.53;1.77;;;16.10;99.90;;;;;;4068246;29;20048;-54
2023/08/07 01:05:40;;;;;;;7.03;2.50;;;16.10;99.90;;;;;;4066886;29;20513;-53
2023/08/07 01:07:44;;;;;;;5.43;1.90;;;16.00;99.90;;;;;;4067804;29;20070;-54
2023/08/07 01:09:47;;;;;;;6.28;2.20;;;16.00;99.90;;;;;;4068123;29;20073;-55
2023/08/07 01:11:55;;;;;;;7.50;2.38;;;16.00;99.90;;;;;;4067874;29;20091;-53
2023/08/07 01:14:06;;;;;;;6.97;1.92;;;16.00;99.90;;;;;;4068451;29;20251;-54
2023/08/07 01:16:17;;;;;;;11.05;2.47;;;16.00;99.90;;;;;;4067548;29;20044;-53
2023/08/07 01:18:20;;;;;;;6.45;2.13;;;15.90;99.90;;;;;;4067965;29;20079;-53
2023/08/07 01:20:23;;;;;;;7.70;2.25;;;15.90;99.90;;;;;;4067636;29;20466;-54
2023/08/07 01:22:26;;;;;;;5.47;2.03;;;15.90;99.90;;;;;;4068184;29;20056;-52
2023/08/07 01:24:28;;;;;;;7.82;2.42;;;15.90;99.90;;;;;;4068071;29;20135;-53
2023/08/07 01:26:31;;;;;;;9.30;2.63;;;15.80;99.90;;;;;;4067268;29;20506;-53
2023/08/07 01:28:38;;;;;;;7.68;2.10;;;15.80;99.90;;;;;;4067885;29;20048;-53
2023/08/07 01:30:45;;;;;;;10.32;2.47;;;15.80;99.90;;;;;;4067865;29;20580;-54
2023/08/07 01:32:57;;;;;;;6.63;2.25;;;15.70;99.90;;;;;;4066728;29;20058;-53
2023/08/07 01:35:02;;;;;;;8.68;2.30;;;15.70;99.90;;;;;;4066972;29;20052;-53
2023/08/07 01:37:07;;;;;;;9.02;2.40;;;15.70;99.90;;;;;;4067709;29;20057;-53
2023/08/07 01:39:11;;;;;;;6.93;2.13;;;15.70;99.90;;;;;;4068161;29;20063;-53
2023/08/07 01:41:13;;;;;;;13.07;2.40;;;15.70;99.90;;;;;;4068146;29;20135;-54
2023/08/07 01:43:16;;;;;;;7.75;2.60;;;15.60;99.90;;;;;;4068192;29;20083;-53
2023/08/07 01:45:23;;;;;;;5.85;1.80;;;15.60;99.90;;;;;;4067308;29;20055;-54
2023/08/07 01:47:25;;;;;;;9.65;2.30;;;15.60;99.90;;;;;;4067629;29;20466;-54
2023/08/07 01:49:28;;;;;;;11.82;2.58;;;15.60;99.90;;;;;;4067500;29;20048;-53
2023/08/07 01:51:30;;;;;;;4.22;1.83;;;15.60;99.90;;;;;;4066636;29;20052;-53
2023/08/07 01:53:32;;;;;;;9.02;2.45;;;15.60;99.90;;;;;;4067630;29;20048;-54
2023/08/07 01:55:35;;;;;;;11.65;2.33;;;15.60;99.90;;;;;;4067363;29;20128;-54
2023/08/07 01:57:38;;;;;;;6.38;2.03;;;15.60;99.90;;;;;;4067759;29;20058;-53
2023/08/07 01:59:40;;;;;;;8.38;1.90;;;15.60;99.90;;;;;;4067658;29;20170;-54
2023/08/07 02:01:42;;;;;;;5.25;1.88;;;15.50;99.90;;;;;;4067662;29;20131;-54
2023/08/07 02:03:44;;;;;;;13.70;2.90;;;15.60;99.90;;;;;;4067333;29;20506;-52
2023/08/07 02:05:46;;;;;;;8.40;2.22;;;15.60;99.90;;;;;;4067260;29;20052;-54
2023/08/07 02:07:48;;;;;;;9.05;2.63;;;15.50;99.90;;;;;;4067702;29;20079;-53
2023/08/07 02:09:50;;;;;;;11.43;2.60;;;15.50;99.90;;;;;;4066142;29;20068;-53
2023/08/07 02:11:53;;;;;;;9.05;2.20;;;15.50;99.90;;;;;;4067593;29;20056;-53
2023/08/07 02:13:55;;;;;;;10.55;2.25;;;15.50;99.90;;;;;;4067526;29;20123;-53
2023/08/07 02:15:57;;;;;;;5.80;1.90;;;15.50;99.90;;;;;;4067111;29;20140;-53
2023/08/07 02:18:00;;;;;;;6.50;2.25;;;15.50;99.90;;;;;;4067401;29;20048;-53
2023/08/07 02:20:02;;;;;;;6.35;2.08;;;15.40;99.90;;;;;;4069658;29;20052;-54
2023/08/07 02:22:06;;;;;;;7.75;2.60;;;15.40;99.90;;;;;;4070378;29;20079;-53
2023/08/07 02:24:08;;;;;;;9.00;2.45;;;15.40;99.90;;;;;;4070371;29;20048;-53
2023/08/07 02:26:10;;;;;;;5.25;2.40;;;15.40;99.90;;;;;;4069761;29;20143;-54
2023/08/07 02:28:14;;;;;;;8.77;2.75;;;15.40;99.90;;;;;;4070073;29;20486;-54
2023/08/07 02:30:16;;;;;;;7.60;2.33;;;15.40;99.90;;;;;;4070442;29;20072;-54
2023/08/07 02:32:18;;;;;;;6.70;1.95;;;15.30;99.90;;;;;;4070197;29;20103;-54
2023/08/07 02:34:20;;;;;;;10.13;2.88;;;15.40;99.90;;;;;;4069728;29;20048;-53
2023/08/07 02:36:23;;;;;;;7.40;2.15;;;15.40;99.90;;;;;;4069707;29;20071;-54
2023/08/07 02:38:25;;;;;;;6.88;2.85;;;15.30;99.90;;;;;;4070397;29;20080;-55
2023/08/07 02:40:27;;;;;;;9.68;2.50;;;15.30;99.90;;;;;;4070326;29;20128;-54
2023/08/07 02:42:29;;;;;;;7.60;2.58;;;15.40;99.90;;;;;;4070277;29;20414;-54
2023/08/07 02:44:33;;;;;;;7.65;2.33;;;15.30;99.90;;;;;;4070379;29;20052;-53
2023/08/07 02:46:36;;;;;;;8.38;2.58;;;15.30;99.90;;;;;;4069518;29;20127;-54
2023/08/07 02:48:39;;;;;;;8.23;2.47;;;15.30;99.90;;;;;;4069604;29;20385;-54
2023/08/07 02:50:41;;;;;;;9.82;2.47;;;15.30;99.90;;;;;;4070250;29;20070;-54
2023/08/07 02:52:43;;;;;;;7.03;2.20;;;15.20;99.90;;;;;;4069800;29;20127;-53
2023/08/07 02:54:47;;;;;;;7.78;2.60;;;15.20;99.90;;;;;;4070054;29;20134;-53
2023/08/07 02:56:49;;;;;;;6.25;2.45;;;15.20;99.90;;;;;;4069196;29;20056;-53
2023/08/07 02:58:51;;;;;;;8.27;2.53;;;15.20;99.90;;;;;;4070198;29;20056;-54
2023/08/07 03:00:55;;;;;;;7.05;2.25;;;15.20;99.90;;;;;;4069940;29;20152;-54
2023/08/07 03:02:57;;;;;;;9.45;2.42;;;15.10;99.90;;;;;;4069391;29;20561;-54
2023/08/07 03:04:59;;;;;;;9.27;2.55;;;15.10;99.90;;;;;;4069936;29;20056;-53
2023/08/07 03:07:01;;;;;;;10.75;3.03;;;15.20;99.90;;;;;;4069130;29;20044;-53
2023/08/07 03:09:03;;;;;;;7.03;2.78;;;15.10;99.90;;;;;;4069584;29;20059;-54
2023/08/07 03:11:06;;;;;;;7.53;2.15;;;15.10;99.90;;;;;;4069421;29;20140;-53
2023/08/07 03:13:08;;;;;;;8.10;2.85;;;15.10;99.90;;;;;;4069522;29;20402;-53
2023/08/07 03:15:10;;;;;;;6.82;2.67;;;15.10;99.90;;;;;;4069365;29;20048;-54
2023/08/07 03:17:14;;;;;;;9.05;2.50;;;15.10;99.90;;;;;;4068822;29;20111;-54
2023/08/07 03:19:16;;;;;;;5.78;2.47;;;15.10;99.90;;;;;;4069442;29;20052;-53
2023/08/07 03:21:18;;;;;;;7.45;2.78;;;15.00;99.90;;;;;;4068149;29;20139;-54
2023/08/07 03:23:20;;;;;;;9.82;2.58;;;15.00;99.90;;;;;;4069410;29;20044;-53
2023/08/07 03:25:22;;;;;;;7.88;3.00;;;15.00;99.90;;;;;;4069158;29;20052;-53
2023/08/07 03:27:24;;;;;;;11.10;2.50;;;15.00;99.90;;;;;;4069032;29;20080;-54
2023/08/07 03:29:26;;;;;;;7.68;2.60;;;15.00;99.90;;;;;;4069207;29;20079;-53
2023/08/07 03:31:28;;;;;;;14.18;3.10;;;14.90;99.90;;;;;;4069150;29;20550;-53
2023/08/07 03:33:32;;;;;;;11.25;2.38;;;15.00;99.90;;;;;;4069303;29;20059;-53
2023/08/07 03:35:34;;;;;;;6.13;2.47;;;14.90;99.90;;;;;;4068873;29;20124;-54
2023/08/07 03:37:36;;;;;;;7.10;2.50;;;14.90;99.90;;;;;;4069306;29;20478;-53
2023/08/07 03:39:38;;;;;;;8.25;2.45;;;14.90;99.90;;;;;;4069346;29;20502;-53
2023/08/07 03:41:40;;;;;;;7.40;2.05;;;14.90;99.90;;;;;;4069363;29;20067;-53
2023/08/07 03:43:42;;;;;;;8.70;2.70;;;14.90;99.90;;;;;;4069139;29;20044;-54
2023/08/07 03:45:44;;;;;;;9.02;3.00;;;14.90;99.90;;;;;;4068088;29;20056;-53
2023/08/07 03:47:46;;;;;;;8.20;2.30;;;14.90;99.90;;;;;;4069171;29;20044;-53
2023/08/07 03:49:50;;;;;;;6.20;2.30;;;14.90;99.90;;;;;;4069188;29;20059;-54
2023/08/07 03:51:56;;;;;;;8.35;2.63;;;14.90;99.90;;;;;;4069101;29;20490;-54
2023/08/07 03:53:58;;;;;;;10.50;2.80;;;14.90;99.90;;;;;;4068860;29;20052;-53
2023/08/07 03:56:00;;;;;;;8.73;2.78;;;14.90;99.90;;;;;;4068240;29;20044;-55
2023/08/07 03:58:02;;;;;;;12.77;2.30;;;14.90;99.90;;;;;;4068973;29;20130;-53
2023/08/07 04:00:06;;;;;;;9.95;2.45;;;14.90;99.90;;;;;;4068561;29;20048;-54
2023/08/07 04:02:08;;;;;;;9.18;2.20;;;14.90;99.90;;;;;;4068918;29;20156;-53
2023/08/07 04:04:10;;;;;;;13.23;3.40;;;14.90;99.90;;;;;;4068806;29;20067;-53
2023/08/07 04:06:15;;;;;;;9.77;2.88;;;14.90;99.90;;;;;;4067020;29;20514;-53
2023/08/07 04:08:18;;;;;;;11.60;2.85;;;14.90;99.90;;;;;;4068898;29;20152;-54
2023/08/07 04:10:20;;;;;;;10.57;3.00;;;14.90;99.90;;;;;;4068687;29;20471;-53
2023/08/07 04:12:22;;;;;;;9.05;2.25;;;14.90;99.90;;;;;;4068718;29;20123;-53
2023/08/07 04:14:24;;;;;;;7.07;2.90;;;14.80;99.90;;;;;;4068316;29;20080;-53
2023/08/07 04:16:26;;;;;;;8.95;2.60;;;14.90;99.90;;;;;;4068030;29;20464;-54
2023/08/07 04:18:28;;;;;;;11.25;2.63;;;14.90;99.90;;;;;;4068978;29;20059;-53
2023/08/07 04:20:31;;;;;;;10.77;2.83;;;14.80;99.90;;;;;;4068739;29;20070;-53
2023/08/07 04:22:34;;;;;;;11.95;3.13;;;14.90;99.90;;;;;;4068757;29;20132;-53
2023/08/07 04:24:36;;;;;;;14.63;3.22;;;14.90;99.90;;;;;;4068412;29;20135;-55
2023/08/07 04:26:38;;;;;;;7.53;2.92;;;14.80;99.90;;;;;;4067984;29;20055;-53
2023/08/07 04:28:40;;;;;;;14.93;3.35;;;14.80;99.90;;;;;;4068200;29;20048;-53
2023/08/07 04:30:43;;;;;;;8.45;2.33;;;14.80;99.90;;;;;;4068600;29;20139;-53
2023/08/07 04:32:45;;;;;;;11.88;3.13;;;14.80;99.90;;;;;;4068365;29;20055;-53
2023/08/07 04:34:47;;;;;;;8.15;2.78;;;14.80;99.90;;;;;;4068383;29;20060;-54
2023/08/07 04:36:53;;;;;;;11.07;2.88;;;14.80;99.90;;;;;;4067831;29;20126;-53
2023/08/07 04:38:57;;;;;;;9.82;2.47;;;14.80;99.90;;;;;;4068600;29;20048;-53
2023/08/07 04:40:59;;;;;;;10.98;3.00;;;14.80;99.90;;;;;;4068536;29;20056;-53
2023/08/07 04:43:02;;;;;;;11.50;3.10;;;14.80;99.90;;;;;;4067503;29;20122;-52
2023/08/07 04:45:05;;;;;;;9.70;2.72;;;14.80;99.90;;;;;;4068240;29;20439;-53
2023/08/07 04:47:07;;;;;;;12.27;3.13;;;14.80;99.90;;;;;;4067519;29;20055;-53
2023/08/07 04:49:09;;;;;;;13.38;3.33;;;14.80;99.90;;;;;;4068236;29;20087;-53
2023/08/07 04:51:11;;;;;;;11.80;3.10;;;14.80;99.90;;;;;;4068255;29;20040;-53
2023/08/07 04:53:14;;;;;;;8.60;2.70;;;14.80;99.90;;;;;;4068347;29;20048;-53
2023/08/07 04:55:17;;;;;;;11.10;3.10;;;14.80;99.90;;;;;;4068233;29;20044;-52
2023/08/07 04:57:19;;;;;;;7.85;2.70;;;14.80;99.90;;;;;;4067737;29;20044;-52
2023/08/07 04:59:21;;;;;;;9.35;3.17;;;14.90;99.90;;;;;;4067758;29;20052;-53
2023/08/07 05:01:23;;;;;;;13.32;3.53;;;14.90;99.90;;;;;;4066891;29;20059;-53
2023/08/07 05:03:30;;;;;;;14.95;2.88;;;14.90;99.90;;;;;;4068403;29;20118;-53
2023/08/07 05:05:32;;;;;;;9.70;2.90;;;14.90;99.90;;;;;;4067956;29;20050;-54
2023/08/07 05:07:34;;;;;;;12.95;3.15;;;14.90;99.90;;;;;;4067748;29;20170;-53
2023/08/07 05:09:37;;;;;;;8.38;2.80;;;14.90;99.90;;;;;;4068292;29;20044;-53
2023/08/07 05:11:41;;;;;;;7.80;2.85;;;15.00;99.90;;;;;;4066732;29;20368;-53
2023/08/07 05:13:43;;;;;;;13.20;2.78;;;15.00;99.90;;;;;;4067710;29;20049;-54
2023/08/07 05:15:47;;;;;;;12.35;3.28;;;15.10;99.90;;;;;;4067704;29;20072;-54
2023/08/07 05:17:50;;;;;;;14.60;3.70;;;15.10;99.90;;;;;;4068142;29;20048;-54
2023/08/07 05:19:52;;;;;;;8.65;2.85;;;15.20;99.90;;;;;;4067975;29;20052;-53
2023/08/07 05:21:54;;;;;;;10.85;3.28;;;15.20;99.90;;;;;;4068693;29;20125;-53
2023/08/07 05:23:57;;;;;;;10.55;3.03;;;15.20;99.90;;;;;;4069113;29;20058;-58
2023/08/07 05:25:59;;;;;;;14.10;3.63;;;15.30;99.90;;;;;;4068245;29;20116;-54
2023/08/07 05:28:02;;;;;;;11.00;3.28;;;15.30;99.90;;;;;;4068178;29;20052;-54
2023/08/07 05:30:06;;;;;;;13.38;3.45;;;15.30;99.90;;;;;;4068377;29;20059;-54
2023/08/07 05:32:08;;;;;;;10.25;3.28;;;15.30;99.90;;;;;;4068154;29;20048;-53
2023/08/07 05:34:10;;;;;;;14.75;3.33;;;15.40;99.90;;;;;;4067917;29;20048;-53
2023/08/07 05:36:12;;;;;;;12.45;3.45;;;15.40;99.90;;;;;;4067614;29;20048;-53
2023/08/07 05:38:14;;;;;;;13.30;4.13;;;15.50;99.90;;;;;;4067739;29;20048;-53
2023/08/07 05:40:16;;;;;;;16.80;4.18;;;15.50;99.90;;;;;;4067954;29;20052;-54
2023/08/07 05:42:18;;;;;;;11.85;4.13;;;15.50;99.90;;;;;;4067729;29;20103;-54
2023/08/07 05:44:22;;;;;;;13.27;4.15;;;15.40;99.90;;;;;;4067795;29;20119;-53
2023/08/07 05:46:24;;;;;;;13.35;4.45;;;15.50;99.90;;;;;;4067076;29;20475;-54
2023/08/07 05:48:26;;;;;;;13.63;4.50;;;15.60;99.90;;;;;;4067722;29;20245;-53
2023/08/07 05:50:28;;;;;;;19.75;5.70;;;15.70;99.90;;;;;;4067840;29;20119;-53
2023/08/07 05:52:30;;;;;;;12.80;4.60;;;15.70;99.90;;;;;;4066650;29;20123;-54
2023/08/07 05:54:33;;;;;;;14.35;5.38;;;15.70;99.90;;;;;;4070917;29;20096;-54
2023/08/07 05:56:35;;;;;;;18.23;5.93;;;15.80;99.90;;;;;;4069980;29;20052;-53
2023/08/07 05:58:37;;;;;;;18.02;5.93;;;15.80;99.90;;;;;;4070905;29;20074;-54
2023/08/07 06:00:41;;;;;;;16.33;5.30;;;15.90;99.90;;;;;;4070965;29;20071;-53
2023/08/07 06:02:43;;;;;;;18.65;6.50;;;15.80;99.90;;;;;;4070743;29;20059;-54
2023/08/07 06:04:45;;;;;;;18.05;6.32;;;15.90;99.90;;;;;;4070490;29;20060;-53
2023/08/07 06:06:47;;;;;;;21.10;6.07;;;15.90;99.90;;;;;;4070011;29;20091;-53
2023/08/07 06:08:49;;;;;;;15.80;5.70;;;16.00;99.90;;;;;;4070629;29;20467;-53
2023/08/07 06:10:51;;;;;;;15.95;5.90;;;16.00;99.90;;;;;;4070117;29;20080;-53
2023/08/07 06:12:53;;;;;;;19.27;7.22;;;16.00;99.90;;;;;;4070696;29;20071;-54
2023/08/07 06:14:55;;;;;;;20.98;7.63;;;16.10;99.90;;;;;;4070462;29;20052;-54
2023/08/07 06:17:01;;;;;;;23.25;7.55;;;16.10;99.90;;;;;;4069818;29;20052;-54
2023/08/07 06:19:03;;;;;;;15.30;6.40;;;16.10;99.90;;;;;;4070553;29;20455;-54
2023/08/07 06:21:18;;;;;;;18.73;5.85;;;16.20;99.90;;;;;;4070693;29;20406;-54
2023/08/07 06:23:20;;;;;;;19.00;6.43;;;16.30;99.90;;;;;;4069367;29;20048;-54
2023/08/07 06:25:22;;;;;;;23.70;6.95;;;16.40;99.90;;;;;;4070050;29;20052;-53
2023/08/07 06:27:24;;;;;;;18.80;6.20;;;16.40;99.90;;;;;;4069722;29;20451;-53
2023/08/07 06:29:26;;;;;;;17.25;7.43;;;16.40;99.90;;;;;;4070225;29;20124;-53
2023/08/07 06:31:28;;;;;;;16.73;6.05;;;16.40;99.90;;;;;;4070536;29;20072;-54
2023/08/07 06:33:33;;;;;;;21.10;6.32;;;16.40;99.90;;;;;;4070093;29;20429;-53
2023/08/07 06:35:38;;;;;;;13.32;5.70;;;16.60;99.90;;;;;;4070079;29;20462;-53
2023/08/07 06:37:41;;;;;;;13.85;6.28;;;16.50;99.90;;;;;;4069388;29;20052;-53
2023/08/07 06:39:43;;;;;;;16.35;6.85;;;16.50;99.90;;;;;;4068884;29;20052;-53
2023/08/07 06:41:45;;;;;;;16.80;5.85;;;16.60;99.90;;;;;;4070168;29;20048;-54
2023/08/07 06:43:47;;;;;;;19.38;6.28;;;16.60;99.90;;;;;;4070350;29;20072;-54
2023/08/07 06:45:50;;;;;;;21.65;8.18;;;16.70;99.90;;;;;;4070297;29;20052;-54
2023/08/07 06:47:52;;;;;;;15.73;7.13;;;16.60;99.90;;;;;;4069882;29;20052;-53
2023/08/07 06:49:56;;;;;;;18.83;7.97;;;16.60;99.90;;;;;;4070447;29;20059;-59
2023/08/07 06:51:58;;;;;;;14.57;6.95;;;16.70;99.90;;;;;;4070426;29;20054;-55
2023/08/07 06:54:00;;;;;;;18.55;7.82;;;16.70;99.90;;;;;;4069822;29;20062;-54
2023/08/07 06:56:02;;;;;;;15.15;6.70;;;16.80;99.90;;;;;;4068870;29;20454;-53
2023/08/07 06:58:04;;;;;;;19.65;7.95;;;16.90;99.90;;;;;;4070181;29;20048;-54
2023/08/07 07:00:07;;;;;;;14.82;7.13;;;16.80;99.90;;;;;;4069164;29;20059;-54
2023/08/07 07:02:13;;;;;;;15.93;7.55;;;16.90;99.90;;;;;;4070322;29;20131;-56
2023/08/07 07:04:15;;;;;;;16.23;7.35;;;16.90;99.90;;;;;;4068702;29;20052;-54
2023/08/07 07:06:18;;;;;;;18.35;7.63;;;16.80;99.90;;;;;;4069264;29;20127;-54
2023/08/07 07:08:21;;;;;;;16.02;7.00;;;16.80;99.90;;;;;;4069563;29;20048;-55
2023/08/07 07:10:23;;;;;;;14.98;6.78;;;16.80;99.90;;;;;;4069605;29;20064;-54
2023/08/07 07:12:25;;;;;;;17.23;6.68;;;17.00;99.90;;;;;;4069795;29;20044;-54
2023/08/07 07:14:27;;;;;;;15.00;6.65;;;17.00;99.90;;;;;;4069424;29;20051;-54
2023/08/07 07:16:29;;;;;;;14.95;7.20;;;17.00;99.90;;;;;;4068780;29;20044;-53
2023/08/07 07:18:32;;;;;;;13.60;6.30;;;16.90;99.90;;;;;;4069608;29;20048;-53
2023/08/07 07:20:34;;;;;;;18.42;8.10;;;17.20;99.90;;;;;;4069753;29;20063;-53
2023/08/07 07:22:37;;;;;;;13.65;7.03;;;17.10;99.90;;;;;;4069066;29;20066;-53
2023/08/07 07:24:40;;;;;;;14.25;5.88;;;17.30;99.90;;;;;;4069706;29;20052;-53
2023/08/07 07:26:42;;;;;;;13.77;6.40;;;17.30;99.90;;;;;;4068791;29;20131;-53
2023/08/07 07:28:44;;;;;;;15.35;5.95;;;17.30;99.90;;;;;;4069306;29;20126;-53
2023/08/07 07:30:46;;;;;;;13.73;6.15;;;17.40;99.90;;;;;;4069291;29;20075;-52
2023/08/07 07:32:50;;;;;;;14.50;5.10;;;17.60;99.90;;;;;;4069602;29;20513;-53
2023/08/07 07:34:53;;;;;;;16.00;5.82;;;17.70;99.90;;;;;;4069427;29;20056;-53
2023/08/07 07:36:55;;;;;;;12.50;4.85;;;17.80;99.90;;;;;;4068864;29;20095;-51
2023/08/07 07:38:59;;;;;;;13.88;5.53;;;17.80;99.90;;;;;;4068894;29;20489;-54
2023/08/07 07:41:01;;;;;;;10.02;5.15;;;17.90;99.90;;;;;;4069168;29;20075;-52
2023/08/07 07:43:03;;;;;;;12.50;4.68;;;17.90;99.90;;;;;;4069122;29;20119;-55
2023/08/07 07:45:06;;;;;;;13.23;5.60;;;17.90;99.90;;;;;;4069195;29;20635;-51
2023/08/07 07:47:08;;;;;;;8.95;4.93;;;18.00;99.90;;;;;;4067338;29;20052;-52
2023/08/07 07:49:14;;;;;;;12.45;5.07;;;18.20;99.90;;;;;;4069383;29;20044;-52
2023/08/07 07:51:17;;;;;;;10.18;4.82;;;18.20;99.90;;;;;;4069336;29;20048;-52
2023/08/07 07:53:21;;;;;;;14.48;5.57;;;18.20;99.90;;;;;;4068648;29;20056;-56
2023/08/07 07:55:27;;;;;;;10.48;4.60;;;18.20;99.90;;;;;;4067866;29;20056;-53
2023/08/07 07:57:30;;;;;;;10.75;4.60;;;18.40;99.90;;;;;;4068263;29;20078;-52
2023/08/07 07:59:32;;;;;;;9.52;4.55;;;18.60;99.90;;;;;;4069050;29;20084;-52
2023/08/07 08:01:34;;;;;;;10.45;4.85;;;18.70;99.90;;;;;;4068876;29;20055;-52
2023/08/07 08:03:36;;;;;;;12.85;4.70;;;18.80;99.90;;;;;;4068688;29;20055;-52
2023/08/07 08:05:38;;;;;;;15.85;5.88;;;18.90;99.90;;;;;;4069005;29;20521;-54
2023/08/07 08:07:40;;;;;;;10.95;4.30;;;19.00;99.90;;;;;;4067927;29;20048;-54
2023/08/07 08:09:42;;;;;;;11.90;4.50;;;18.90;99.90;;;;;;4069016;29;20051;-54
2023/08/07 08:11:46;;;;;;;9.10;4.30;;;18.80;99.90;;;;;;4068726;29;20056;-54
2023/08/07 08:13:48;;;;;;;13.20;5.22;;;18.90;99.90;;;;;;4068551;29;20092;-54
2023/08/07 08:15:51;;;;;;;11.30;4.32;;;19.10;99.90;;;;;;4068371;29;20092;-54
2023/08/07 08:17:53;;;;;;;12.70;4.65;;;18.90;99.90;;;;;;4067413;29;20048;-54
2023/08/07 08:20:00;;;;;;;9.95;4.47;;;19.10;99.90;;;;;;4068687;29;20127;-54
2023/08/07 08:22:02;;;;;;;14.40;4.95;;;19.20;99.90;;;;;;4068375;29;20136;-55
2023/08/07 08:24:05;;;;;;;9.02;3.53;;;19.30;99.90;;;;;;4068553;29;20076;-54
2023/08/07 08:26:07;;;;;;;8.40;3.25;;;19.10;99.90;;;;;;4068694;29;20466;-53
2023/08/07 08:28:11;;;;;;;9.50;4.20;;;19.20;99.90;;;;;;4067838;29;20052;-53
2023/08/07 08:30:13;;;;;;;7.53;4.00;;;19.30;99.90;;;;;;4068613;29;20351;-54
2023/08/07 08:32:15;;;;;;;11.43;3.55;;;19.20;99.90;;;;;;4068233;29;20052;-54
2023/08/07 08:34:17;;;;;;;8.45;3.40;;;19.10;99.90;;;;;;4068392;29;20080;-54
2023/08/07 08:36:19;;;;;;;8.98;3.83;;;19.00;99.90;;;;;;4067544;29;20544;-52
2023/08/07 08:38:22;;;;;;;7.13;3.50;;;19.00;99.90;;;;;;4068217;29;20067;-52
2023/08/07 08:40:24;;;;;;;9.82;3.65;;;19.20;99.90;;;;;;4068545;29;20052;-51
2023/08/07 08:42:27;;;;;;;10.88;3.25;;;19.30;99.90;;;;;;4068461;29;20082;-52
2023/08/07 08:44:36;;;;;;;11.32;3.10;;;19.50;99.90;;;;;;4068574;29;20059;-52
2023/08/07 08:46:41;;;;;;;7.97;3.25;;;19.70;99.90;;;;;;4067863;29;20052;-52
2023/08/07 08:48:47;;;;;;;;;;;19.60;99.90;;;;;;4068715;29;20048;-53
2023/08/07 08:50:50;;;;;;;7.68;3.22;;;19.60;99.90;;;;;;4066679;29;19982;-52
2023/08/07 08:52:53;;;;;;;8.02;3.30;;;19.40;99.90;;;;;;4068578;29;20084;-51
2023/08/07 08:55:01;;;;;;;7.90;2.90;;;19.50;99.90;;;;;;4068440;29;20071;-52
2023/08/07 08:57:04;;;;;;;8.95;3.42;;;19.50;99.90;;;;;;4068016;29;20135;-54
2023/08/07 08:59:06;;;;;;;7.63;2.90;;;19.60;99.90;;;;;;4068223;29;20131;-52
2023/08/07 09:01:11;;;;;;;7.80;3.33;;;19.50;99.90;;;;;;4068238;29;20048;-50
2023/08/07 09:03:13;;;;;;;9.18;2.80;;;19.40;99.90;;;;;;4068423;29;20055;-53
2023/08/07 09:05:17;;;;;;;7.22;3.17;;;19.50;99.90;;;;;;4068055;29;20080;-51
2023/08/07 09:07:24;;;;;;;5.90;2.60;;;19.40;99.90;;;;;;4067396;29;20044;-52
2023/08/07 09:09:31;;;;;;;7.03;3.28;;;19.30;99.90;;;;;;4068295;29;20076;-52
2023/08/07 09:11:34;;;;;;;5.78;2.75;;;19.50;99.90;;;;;;4067985;29;20056;-53
2023/08/07 09:13:38;;;;;;;11.30;3.63;;;19.60;99.90;;;;;;4068332;29;20044;-52
2023/08/07 09:15:40;;;;;;;6.20;3.42;;;19.70;99.90;;;;;;4067827;29;20414;-52
2023/08/07 09:17:46;;;;;;;8.40;2.78;;;19.80;99.90;;;;;;4067402;29;20062;-52
2023/08/07 09:19:53;;;;;;;6.07;2.65;;;19.80;99.70;;;;;;4067830;29;20414;-52
2023/08/07 09:22:01;;;;;;;8.95;2.63;;;20.00;99.90;;;;;;4068042;29;20044;-53
2023/08/07 09:24:03;;;;;;;7.35;3.00;;;19.80;99.50;;;;;;4068264;29;20121;-55
2023/08/07 09:26:05;;;;;;;7.78;2.20;;;19.80;99.40;;;;;;4067199;29;20146;-54
2023/08/07 09:28:09;;;;;;;8.35;3.20;;;19.90;99.50;;;;;;4068290;29;20076;-55
2023/08/07 09:30:11;;;;;;;7.70;3.10;;;20.00;99.50;;;;;;4071114;29;20052;-54
2023/08/07 09:32:21;;;;;;;8.10;2.42;;;20.00;99.00;;;;;;4071103;29;20051;-52
2023/08/07 09:34:24;;;;;;;10.15;3.72;;;20.00;98.70;;;;;;4070731;29;20149;-52
2023/08/07 09:36:29;;;;;;;5.38;2.70;;;20.10;99.30;;;;;;4070733;29;20063;-52
2023/08/07 09:38:32;;;;;;;6.40;2.35;;;20.00;98.70;;;;;;4071061;29;20054;-53
2023/08/07 09:40:35;;;;;;;6.82;2.70;;;20.00;98.60;;;;;;4071175;29;20546;-52
2023/08/07 09:42:37;;;;;;;7.38;2.40;;;20.00;98.50;;;;;;4070835;29;20059;-52
2023/08/07 09:44:39;;;;;;;9.88;2.70;;;20.10;98.70;;;;;;4071057;29;20052;-51
2023/08/07 09:46:42;;;;;;;7.00;2.72;;;20.10;98.20;;;;;;4070342;29;20491;-53
2023/08/07 09:48:44;;;;;;;9.38;2.42;;;20.20;98.60;;;;;;4070625;29;20048;-54
2023/08/07 09:50:48;;;;;;;6.97;2.47;;;20.20;98.60;;;;;;4071207;29;20135;-54
2023/08/07 09:52:50;;;;;;;3.88;1.88;;;20.10;97.90;;;;;;4070986;29;20044;-54
2023/08/07 09:54:56;;;;;;;6.82;2.20;;;20.10;98.00;;;;;;4070726;29;20050;-54
2023/08/07 09:56:59;;;;;;;7.60;1.98;;;20.20;97.70;;;;;;4070162;29;20052;-54
2023/08/07 09:59:03;;;;;;;5.43;2.17;;;20.30;97.40;;;;;;4069534;29;20088;-54
2023/08/07 10:01:07;;;;;;;5.40;2.35;;;20.20;97.20;;;;;;4070620;29;20052;-54
2023/08/07 10:03:09;;;;;;;5.95;1.85;;;20.20;97.30;;;;;;4070611;29;20052;-54
2023/08/07 10:05:12;;;;;;;5.32;2.15;;;20.30;97.10;;;;;;4070731;29;20533;-55
2023/08/07 10:07:16;;;;;;;4.72;2.05;;;20.40;96.80;;;;;;4070052;29;20428;-55
2023/08/07 10:09:18;;;;;;;19.88;13.85;;;20.30;96.50;;;;;;4070718;29;20059;-54
2023/08/07 10:11:21;;;;;;;3.60;2.35;;;20.30;96.90;;;;;;4070304;29;20546;-55
2023/08/07 10:13:23;;;;;;;2.97;1.65;;;20.40;96.80;;;;;;4069411;29;20059;-54
2023/08/07 10:15:42;;;;;;;3.88;1.95;;;20.60;96.70;;;;;;4070415;29;20409;-54
2023/08/07 10:17:44;;;;;;;5.43;1.80;;;20.70;96.50;;;;;;4069575;29;20051;-53
2023/08/07 10:19:46;;;;;;;5.03;2.17;;;20.60;96.10;;;;;;4070642;29;20044;-54
2023/08/07 10:21:50;;;;;;;5.47;2.38;;;20.60;96.40;;;;;;4070534;29;20418;-54
2023/08/07 10:23:56;;;;;;;3.35;1.98;;;20.80;96.10;;;;;;4070402;29;20052;-55
2023/08/07 10:26:00;;;;;;;5.63;2.15;;;20.90;95.70;;;;;;4070217;29;20052;-55
2023/08/07 10:28:05;;;;;;;5.57;1.77;;;20.80;95.80;;;;;;4069615;29;20051;-54
2023/08/07 10:30:14;;;;;;;6.75;2.15;;;20.90;96.10;;;;;;4070319;29;20108;-54
2023/08/07 10:32:20;;;;;;;7.15;2.40;;;21.10;96.40;;;;;;4069886;29;20054;-52
2023/08/07 10:34:22;;;;;;;2.92;1.73;;;21.00;95.40;;;;;;4070152;29;20075;-52
2023/08/07 10:36:32;;;;;;;6.45;2.13;;;21.10;95.20;;;;;;4070201;29;20055;-52